createdAt,value
2018-10-06T00:01:43.206Z,15.65
2018-10-06T00:04:12.620Z,18.73
2018-10-06T00:06:42.107Z,13.93
2018-10-06T00:09:11.608Z,18.87
2018-10-06T00:11:41.031Z,18.52
2018-10-06T00:14:10.486Z,18.73
2018-10-06T00:16:39.940Z,21.97
2018-10-06T00:19:09.453Z,17.02
2018-10-06T00:21:38.973Z,18.25
2018-10-06T00:24:08.513Z,14.25
2018-10-06T00:26:38.013Z,18.87
2018-10-06T00:29:07.586Z,17.90
2018-10-06T00:31:37.141Z,15.68
2018-10-06T00:34:06.729Z,14.65
2018-10-06T00:36:36.299Z,18.98
2018-10-06T00:39:06.570Z,21.40
2018-10-06T00:41:36.190Z,16.00
2018-10-06T00:44:05.708Z,19.95
2018-10-06T00:46:35.372Z,14.90
2018-10-06T00:49:04.804Z,17.82
2018-10-06T00:51:34.308Z,19.70
2018-10-06T00:54:03.820Z,14.78
2018-10-06T00:56:33.380Z,16.60
2018-10-06T00:59:02.943Z,16.65
2018-10-06T01:01:32.465Z,18.70
2018-10-06T01:04:01.931Z,15.48
2018-10-06T01:06:31.556Z,17.92
2018-10-06T01:09:01.069Z,14.95
2018-10-06T01:11:30.524Z,15.68
2018-10-06T01:13:59.964Z,15.85
2018-10-06T01:16:29.389Z,19.20
2018-10-06T01:18:58.894Z,16.02
2018-10-06T01:21:28.378Z,18.62
2018-10-06T01:23:57.863Z,13.55
2018-10-06T01:26:27.384Z,14.00
2018-10-06T01:28:57.079Z,16.77
2018-10-06T01:31:26.617Z,14.10
2018-10-06T01:33:56.517Z,16.10
2018-10-06T01:36:26.014Z,18.27
2018-10-06T01:38:55.525Z,17.32
2018-10-06T01:41:25.016Z,16.42
2018-10-06T01:43:54.519Z,18.48
2018-10-06T01:46:24.023Z,17.10
2018-10-06T01:48:53.403Z,15.90
2018-10-06T01:51:22.906Z,21.50
2018-10-06T01:53:52.391Z,18.67
2018-10-06T01:56:21.808Z,16.23
2018-10-06T01:58:51.254Z,15.05
2018-10-06T02:01:20.656Z,18.02
2018-10-06T02:03:50.090Z,16.65
2018-10-06T02:06:19.471Z,16.32
2018-10-06T02:08:48.892Z,13.60
2018-10-06T02:11:18.288Z,19.62
2018-10-06T02:13:47.752Z,16.20
2018-10-06T02:16:17.147Z,16.60
2018-10-06T02:18:46.661Z,19.30
2018-10-06T02:21:16.148Z,18.82
2018-10-06T02:23:45.743Z,18.92
2018-10-06T02:26:15.136Z,17.20
2018-10-06T02:28:44.599Z,21.10
2018-10-06T02:31:26.155Z,16.15
2018-10-06T02:33:55.725Z,18.25
2018-10-06T02:36:25.281Z,18.35
2018-10-06T02:38:55.029Z,18.50
2018-10-06T02:41:24.417Z,19.25
2018-10-06T02:43:53.939Z,21.40
2018-10-06T02:46:23.430Z,17.70
2018-10-06T02:48:52.961Z,21.40
2018-10-06T02:51:22.968Z,16.97
2018-10-06T02:53:52.469Z,17.10
2018-10-06T02:56:22.087Z,16.62
2018-10-06T02:58:51.692Z,14.95
2018-10-06T03:01:21.269Z,17.17
2018-10-06T03:03:50.782Z,18.05
2018-10-06T03:06:20.280Z,13.55
2018-10-06T03:08:49.868Z,18.40
2018-10-06T03:11:19.423Z,22.45
2018-10-06T03:13:48.805Z,18.20
2018-10-06T03:16:18.422Z,19.77
2018-10-06T03:18:47.873Z,20.05
2018-10-06T03:21:17.993Z,19.48
2018-10-06T03:23:47.579Z,15.78
2018-10-06T03:26:17.174Z,16.30
2018-10-06T03:28:46.721Z,18.52
2018-10-06T03:31:16.525Z,16.62
2018-10-06T03:33:46.180Z,18.92
2018-10-06T03:36:15.855Z,18.15
2018-10-06T03:38:45.582Z,15.88
2018-10-06T03:41:15.152Z,15.90
2018-10-06T03:43:44.731Z,16.70
2018-10-06T03:46:14.367Z,19.27
2018-10-06T03:48:43.799Z,13.80
2018-10-06T03:51:13.203Z,15.13
2018-10-06T03:53:42.722Z,13.60
2018-10-06T03:56:12.404Z,13.78
2018-10-06T03:58:42.064Z,18.07
2018-10-06T04:01:11.691Z,16.52
2018-10-06T04:03:41.307Z,16.27
2018-10-06T04:06:10.932Z,15.80
2018-10-06T04:08:40.712Z,17.90
2018-10-06T04:11:10.320Z,16.35
2018-10-06T04:13:39.945Z,13.70
2018-10-06T04:16:09.663Z,12.18
2018-10-06T04:18:39.370Z,15.08
2018-10-06T04:21:08.906Z,14.10
2018-10-06T04:23:38.488Z,15.15
2018-10-06T04:26:08.248Z,14.28
2018-10-06T04:28:37.890Z,14.45
2018-10-06T04:31:07.628Z,18.07
2018-10-06T04:33:37.256Z,14.70
2018-10-06T04:36:07.024Z,20.57
2018-10-06T04:38:36.730Z,14.87
2018-10-06T04:41:06.450Z,14.55
2018-10-06T04:43:36.091Z,19.25
2018-10-06T04:46:05.758Z,14.00
2018-10-06T04:48:35.387Z,17.65
2018-10-06T04:51:05.020Z,13.03
2018-10-06T04:53:34.573Z,15.05
2018-10-06T04:56:04.104Z,15.90
2018-10-06T04:58:33.769Z,15.65
2018-10-06T05:01:03.148Z,12.82
2018-10-06T05:03:32.756Z,14.78
2018-10-06T05:06:02.446Z,15.40
2018-10-06T05:08:32.012Z,15.90
2018-10-06T05:11:01.674Z,15.70
2018-10-06T05:13:31.057Z,15.03
2018-10-06T05:16:00.475Z,13.08
2018-10-06T05:18:29.896Z,17.42
2018-10-06T05:20:59.407Z,14.15
2018-10-06T05:23:28.975Z,11.08
2018-10-06T05:25:58.507Z,14.33
2018-10-06T05:28:28.060Z,11.80
2018-10-06T05:30:57.543Z,13.15
2018-10-06T05:33:27.143Z,14.53
2018-10-06T05:35:56.831Z,12.78
2018-10-06T05:38:26.192Z,12.55
2018-10-06T05:40:55.640Z,13.95
2018-10-06T05:43:25.157Z,15.10
2018-10-06T05:45:54.627Z,12.95
2018-10-06T05:48:24.170Z,19.00
2018-10-06T05:50:53.645Z,12.45
2018-10-06T05:53:23.038Z,17.25
2018-10-06T05:55:52.456Z,20.45
2018-10-06T05:58:21.888Z,18.32
2018-10-06T06:00:51.255Z,15.38
2018-10-06T06:03:20.668Z,16.10
2018-10-06T06:05:50.127Z,14.58
2018-10-06T06:08:20.047Z,16.52
2018-10-06T06:10:49.474Z,14.05
2018-10-06T06:13:18.940Z,24.60
2018-10-06T06:15:48.491Z,13.78
2018-10-06T06:18:17.782Z,17.15
2018-10-06T06:20:47.204Z,17.17
2018-10-06T06:23:16.627Z,14.65
2018-10-06T06:25:46.091Z,13.00
2018-10-06T06:28:15.634Z,18.55
2018-10-06T06:30:45.094Z,14.45
2018-10-06T06:33:14.513Z,16.07
2018-10-06T06:35:43.941Z,18.75
2018-10-06T06:38:13.452Z,19.30
2018-10-06T06:40:42.834Z,16.40
2018-10-06T06:43:12.329Z,16.48
2018-10-06T06:45:41.675Z,14.70
2018-10-06T06:48:11.137Z,18.62
2018-10-06T06:50:40.525Z,14.10
2018-10-06T06:53:10.019Z,17.95
2018-10-06T06:55:39.461Z,15.45
2018-10-06T06:58:08.929Z,19.55
2018-10-06T07:00:38.364Z,17.90
2018-10-06T07:03:08.269Z,15.75
2018-10-06T07:05:37.962Z,23.85
2018-10-06T07:08:07.406Z,14.40
2018-10-06T07:10:36.804Z,20.00
2018-10-06T07:13:06.612Z,20.72
2018-10-06T07:15:35.965Z,20.05
2018-10-06T07:18:05.576Z,19.17
2018-10-06T07:20:35.084Z,15.95
2018-10-06T07:23:04.462Z,18.15
2018-10-06T07:25:39.209Z,18.12
2018-10-06T07:28:08.632Z,15.53
2018-10-06T07:30:38.176Z,17.10
2018-10-06T07:33:07.616Z,17.12
2018-10-06T07:35:37.014Z,16.93
2018-10-06T07:38:06.544Z,15.45
2018-10-06T07:40:35.991Z,16.37
2018-10-06T07:43:05.642Z,17.00
2018-10-06T07:45:35.080Z,15.08
2018-10-06T07:48:04.744Z,22.37
2018-10-06T07:50:34.204Z,20.77
2018-10-06T07:53:03.708Z,16.67
2018-10-06T07:55:33.151Z,15.88
2018-10-06T07:58:02.576Z,18.62
2018-10-06T08:00:32.023Z,24.37
2018-10-06T08:03:01.516Z,18.17
2018-10-06T08:05:31.045Z,16.62
2018-10-06T08:08:00.645Z,22.13
2018-10-06T08:10:30.247Z,19.62
2018-10-06T08:12:59.792Z,12.85
2018-10-06T08:15:32.118Z,17.60
2018-10-06T08:18:01.671Z,18.73
2018-10-06T08:20:31.027Z,14.00
2018-10-06T08:23:00.517Z,14.40
2018-10-06T08:25:29.942Z,16.75
2018-10-06T08:27:59.425Z,13.45
2018-10-06T08:30:28.852Z,14.07
2018-10-06T08:32:58.337Z,15.28
2018-10-06T08:35:27.741Z,17.12
2018-10-06T08:37:57.138Z,18.80
2018-10-06T08:40:26.572Z,18.30
2018-10-06T08:42:56.096Z,14.63
2018-10-06T08:45:25.551Z,15.18
2018-10-06T08:47:55.861Z,13.28
2018-10-06T08:50:25.250Z,13.30
2018-10-06T08:52:54.686Z,19.15
2018-10-06T08:55:24.108Z,12.25
2018-10-06T08:57:53.567Z,18.17
2018-10-06T09:00:23.095Z,19.10
2018-10-06T09:02:52.515Z,9.60
2018-10-06T09:05:22.163Z,10.98
2018-10-06T09:07:51.882Z,10.60
2018-10-06T09:10:21.367Z,9.85
2018-10-06T09:12:50.922Z,16.25
2018-10-06T09:15:20.357Z,12.28
2018-10-06T09:17:49.885Z,13.83
2018-10-06T09:20:19.315Z,12.30
2018-10-06T09:22:49.085Z,13.20
2018-10-06T09:25:25.069Z,10.28
2018-10-06T09:27:55.236Z,12.20
2018-10-06T09:30:24.684Z,7.72
2018-10-06T09:32:56.845Z,8.70
2018-10-06T09:35:26.251Z,7.62
2018-10-06T09:37:55.668Z,16.48
2018-10-06T09:40:25.429Z,10.05
2018-10-06T09:42:55.109Z,10.85
2018-10-06T09:45:24.638Z,8.40
2018-10-06T09:47:54.100Z,12.07
2018-10-06T09:50:23.737Z,7.50
2018-10-06T09:52:53.274Z,9.40
2018-10-06T09:55:22.647Z,11.03
2018-10-06T09:57:52.051Z,9.78
2018-10-06T10:00:26.811Z,8.48
2018-10-06T10:03:01.358Z,8.25
2018-10-06T10:05:35.860Z,7.10
2018-10-06T10:08:05.347Z,6.53
2018-10-06T10:10:36.553Z,9.35
2018-10-06T10:13:06.054Z,6.87
2018-10-06T10:15:35.481Z,5.10
2018-10-06T10:18:05.028Z,10.03
2018-10-06T10:20:34.451Z,7.37
2018-10-06T10:23:04.037Z,7.00
2018-10-06T10:25:33.358Z,6.97
2018-10-06T10:28:02.906Z,6.10
2018-10-06T10:30:32.346Z,4.70
2018-10-06T10:33:01.792Z,5.22
2018-10-06T10:35:31.199Z,3.83
2018-10-06T10:38:01.612Z,3.10
2018-10-06T10:40:31.079Z,3.58
2018-10-06T10:43:06.730Z,4.80
2018-10-06T10:45:36.253Z,4.45
2018-10-06T10:48:05.826Z,3.17
2018-10-06T10:50:35.241Z,3.10
2018-10-06T10:53:05.147Z,2.87
2018-10-06T10:55:34.820Z,3.08
2018-10-06T10:58:04.233Z,6.65
2018-10-06T11:00:33.589Z,5.28
2018-10-06T11:03:02.967Z,5.62
2018-10-06T11:05:32.379Z,6.10
2018-10-06T11:08:01.870Z,4.75
2018-10-06T11:10:31.317Z,5.58
2018-10-06T11:13:00.701Z,4.92
2018-10-06T11:15:30.135Z,4.75
2018-10-06T11:17:59.552Z,4.90
2018-10-06T11:20:28.974Z,9.00
2018-10-06T11:22:58.416Z,3.95
2018-10-06T11:25:27.779Z,5.72
2018-10-06T11:27:57.173Z,4.67
2018-10-06T11:30:26.698Z,5.30
2018-10-06T11:32:56.246Z,6.25
2018-10-06T11:35:25.727Z,5.40
2018-10-06T11:38:01.469Z,3.75
2018-10-06T11:40:31.115Z,3.37
2018-10-06T11:43:00.558Z,4.28
2018-10-06T11:45:30.131Z,3.20
2018-10-06T11:47:59.607Z,3.80
2018-10-06T11:50:29.036Z,3.20
2018-10-06T11:52:58.386Z,3.52
2018-10-06T11:55:27.838Z,5.12
2018-10-06T11:57:57.267Z,3.75
2018-10-06T12:00:26.802Z,5.33
2018-10-06T12:02:56.202Z,5.55
2018-10-06T12:05:25.602Z,3.90
2018-10-06T12:07:55.070Z,3.87
2018-10-06T12:10:24.435Z,3.42
2018-10-06T12:12:53.911Z,3.60
2018-10-06T12:15:23.392Z,4.17
2018-10-06T12:17:52.904Z,4.47
2018-10-06T12:20:22.334Z,5.22
2018-10-06T12:22:51.711Z,3.87
2018-10-06T12:25:21.111Z,5.83
2018-10-06T12:27:50.526Z,4.12
2018-10-06T12:30:20.470Z,4.25
2018-10-06T12:32:50.229Z,4.20
2018-10-06T12:35:20.211Z,4.47
2018-10-06T12:37:49.396Z,4.30
2018-10-06T12:40:18.783Z,11.90
2018-10-06T12:42:48.159Z,5.22
2018-10-06T12:45:17.589Z,4.30
2018-10-06T12:47:47.028Z,4.62
2018-10-06T12:50:16.395Z,4.35
2018-10-06T12:52:45.816Z,6.00
2018-10-06T12:55:15.179Z,4.40
2018-10-06T12:57:44.564Z,4.85
2018-10-06T13:00:14.054Z,4.35
2018-10-06T13:02:43.372Z,7.12
2018-10-06T13:05:12.825Z,5.35
2018-10-06T13:07:42.463Z,5.30
2018-10-06T13:10:11.967Z,5.17
2018-10-06T13:12:41.353Z,9.25
2018-10-06T13:15:10.663Z,9.25
2018-10-06T13:17:40.012Z,5.67
2018-10-06T13:20:09.473Z,5.15
2018-10-06T13:22:38.798Z,5.08
2018-10-06T13:25:08.223Z,6.15
2018-10-06T13:27:38.830Z,5.80
2018-10-06T13:30:08.255Z,6.47
2018-10-06T13:32:37.711Z,4.55
2018-10-06T13:35:07.110Z,7.47
2018-10-06T13:37:36.495Z,11.28
2018-10-06T13:40:05.951Z,4.28
2018-10-06T13:42:35.319Z,5.33
2018-10-06T13:45:04.754Z,4.35
2018-10-06T13:47:34.161Z,5.45
2018-10-06T13:50:03.671Z,5.17
2018-10-06T13:52:33.158Z,4.90
2018-10-06T13:55:02.760Z,4.72
2018-10-06T13:57:32.141Z,5.35
2018-10-06T14:00:01.637Z,5.33
2018-10-06T14:02:31.063Z,4.62
2018-10-06T14:05:00.504Z,8.45
2018-10-06T14:07:29.913Z,6.40
2018-10-06T14:09:59.471Z,7.00
2018-10-06T14:12:28.944Z,9.98
2018-10-06T14:14:58.493Z,5.33
2018-10-06T14:17:27.827Z,7.87
2018-10-06T14:19:57.245Z,6.10
2018-10-06T14:22:26.667Z,5.30
2018-10-06T14:24:56.074Z,6.58
2018-10-06T14:27:25.440Z,10.68
2018-10-06T14:29:54.962Z,6.92
2018-10-06T14:32:24.314Z,7.97
2018-10-06T14:34:53.735Z,6.22
2018-10-06T14:37:23.138Z,9.48
2018-10-06T14:39:52.519Z,5.75
2018-10-06T14:42:21.961Z,6.15
2018-10-06T14:44:51.393Z,7.55
2018-10-06T14:47:20.856Z,9.38
2018-10-06T14:49:50.166Z,8.18
2018-10-06T14:52:19.533Z,6.60
2018-10-06T14:54:48.949Z,7.70
2018-10-06T14:57:18.322Z,6.80
2018-10-06T14:59:47.778Z,10.55
2018-10-06T15:02:17.125Z,5.05
2018-10-06T15:04:46.487Z,4.92
2018-10-06T15:07:15.876Z,7.62
2018-10-06T15:09:45.287Z,8.28
2018-10-06T15:12:14.728Z,7.25
2018-10-06T15:14:44.183Z,7.15
2018-10-06T15:17:13.565Z,6.70
2018-10-06T15:19:42.973Z,17.27
2018-10-06T15:22:12.361Z,16.37
2018-10-06T15:24:41.865Z,17.37
2018-10-06T15:27:11.242Z,40.83
2018-10-06T15:29:40.614Z,34.08
2018-10-06T15:32:09.957Z,47.62
2018-10-06T15:34:39.449Z,23.30
2018-10-06T15:37:08.824Z,13.03
2018-10-06T15:39:38.216Z,21.50
2018-10-06T15:42:07.653Z,45.92
2018-10-06T15:44:37.025Z,24.47
2018-10-06T15:47:06.505Z,13.05
2018-10-06T15:49:35.903Z,10.05
2018-10-06T15:52:05.272Z,9.53
2018-10-06T15:54:34.604Z,10.18
2018-10-06T15:57:03.933Z,9.15
2018-10-06T15:59:33.330Z,9.93
2018-10-06T16:02:02.768Z,10.45
2018-10-06T16:04:32.163Z,4.78
2018-10-06T16:07:02.297Z,6.92
2018-10-06T16:09:31.644Z,6.12
2018-10-06T16:12:01.029Z,6.33
2018-10-06T16:14:30.432Z,9.98
2018-10-06T16:17:00.647Z,10.65
2018-10-06T16:19:30.251Z,10.85
2018-10-06T16:21:59.764Z,9.50
2018-10-06T16:24:29.128Z,18.70
2018-10-06T16:26:59.345Z,12.35
2018-10-06T16:29:29.104Z,11.10
2018-10-06T16:31:58.494Z,14.20
2018-10-06T16:34:27.899Z,12.82
2018-10-06T16:36:57.278Z,13.13
2018-10-06T16:39:26.673Z,11.80
2018-10-06T16:41:56.024Z,19.20
2018-10-06T16:44:25.467Z,7.47
2018-10-06T16:46:54.848Z,7.00
2018-10-06T16:49:24.299Z,12.82
2018-10-06T16:51:53.713Z,9.60
2018-10-06T16:54:23.128Z,10.68
2018-10-06T16:56:52.529Z,10.05
2018-10-06T16:59:21.913Z,13.20
2018-10-06T17:01:51.394Z,8.03
2018-10-06T17:04:20.678Z,10.82
2018-10-06T17:06:50.124Z,9.65
2018-10-06T17:09:19.524Z,12.00
2018-10-06T17:11:48.903Z,13.08
2018-10-06T17:14:18.279Z,11.33
2018-10-06T17:16:47.638Z,13.83
2018-10-06T17:19:17.199Z,11.90
2018-10-06T17:21:46.790Z,12.78
2018-10-06T17:24:16.250Z,8.38
2018-10-06T17:26:45.527Z,9.05
2018-10-06T17:29:14.949Z,13.48
2018-10-06T17:31:44.575Z,11.73
2018-10-06T17:34:13.959Z,10.55
2018-10-06T17:36:43.371Z,13.32
2018-10-06T17:39:12.744Z,14.95
2018-10-06T17:41:42.084Z,15.45
2018-10-06T17:44:11.514Z,16.40
2018-10-06T17:46:40.904Z,17.75
2018-10-06T17:49:10.210Z,15.45
2018-10-06T17:51:39.591Z,10.32
2018-10-06T17:54:09.013Z,13.30
2018-10-06T17:56:38.421Z,13.60
2018-10-06T17:59:07.812Z,13.85
2018-10-06T18:01:37.208Z,14.50
2018-10-06T18:04:06.604Z,14.83
2018-10-06T18:06:35.997Z,14.20
2018-10-06T18:09:07.077Z,15.43
2018-10-06T18:11:36.528Z,17.98
2018-10-06T18:14:05.895Z,20.82
2018-10-06T18:16:35.313Z,17.90
2018-10-06T18:19:04.729Z,15.50
2018-10-06T18:21:34.239Z,17.30
2018-10-06T18:24:03.452Z,12.55
2018-10-06T18:26:32.895Z,14.00
2018-10-06T18:29:02.292Z,15.45
2018-10-06T18:31:31.604Z,16.02
2018-10-06T18:34:01.044Z,17.00
2018-10-06T18:36:30.569Z,22.70
2018-10-06T18:38:59.841Z,16.45
2018-10-06T18:41:29.290Z,15.03
2018-10-06T18:43:58.714Z,20.72
2018-10-06T18:46:28.094Z,18.77
2018-10-06T18:48:57.899Z,15.75
2018-10-06T18:51:27.273Z,22.22
2018-10-06T18:53:56.891Z,15.53
2018-10-06T18:56:26.543Z,22.45
2018-10-06T18:58:56.107Z,20.55
2018-10-06T19:01:25.579Z,16.50
2018-10-06T19:03:55.044Z,20.25
2018-10-06T19:06:24.427Z,21.10
2018-10-06T19:08:53.787Z,18.60
2018-10-06T19:11:23.196Z,19.82
2018-10-06T19:13:52.543Z,15.60
2018-10-06T19:16:22.651Z,26.87
2018-10-06T19:18:52.512Z,21.52
2018-10-06T19:21:22.482Z,20.43
2018-10-06T19:23:52.006Z,18.75
2018-10-06T19:26:21.384Z,16.77
2018-10-06T19:28:50.989Z,18.50
2018-10-06T19:31:20.528Z,23.35
2018-10-06T19:33:49.930Z,19.70
2018-10-06T19:36:19.299Z,15.30
2018-10-06T19:38:48.711Z,16.02
2018-10-06T19:41:18.138Z,25.23
2018-10-06T19:43:47.815Z,24.50
2018-10-06T19:46:17.262Z,25.32
2018-10-06T19:48:46.635Z,23.90
2018-10-06T19:51:16.056Z,19.57
2018-10-06T19:53:45.452Z,22.35
2018-10-06T19:56:14.848Z,22.37
2018-10-06T19:58:44.371Z,25.32
2018-10-06T20:01:14.175Z,21.42
2018-10-06T20:03:43.597Z,16.62
2018-10-06T20:06:13.228Z,16.45
2018-10-06T20:08:42.612Z,22.58
2018-10-06T20:11:12.048Z,18.55
2018-10-06T20:13:41.488Z,18.98
2018-10-06T20:16:10.885Z,19.75
2018-10-06T20:18:40.288Z,17.12
2018-10-06T20:21:09.658Z,15.68
2018-10-06T20:23:39.165Z,13.08
2018-10-06T20:26:08.995Z,13.78
2018-10-06T20:28:38.363Z,16.65
2018-10-06T20:31:07.819Z,17.82
2018-10-06T20:33:37.181Z,15.53
2018-10-06T20:36:06.567Z,18.40
2018-10-06T20:38:36.598Z,15.95
2018-10-06T20:41:06.180Z,15.95
2018-10-06T20:43:35.622Z,20.12
2018-10-06T20:46:05.050Z,18.12
2018-10-06T20:48:34.472Z,21.57
2018-10-06T20:51:03.973Z,15.98
2018-10-06T20:53:33.662Z,18.48
2018-10-06T20:56:03.101Z,16.82
2018-10-06T20:58:32.750Z,17.07
2018-10-06T21:01:02.207Z,18.10
2018-10-06T21:03:31.560Z,17.77
2018-10-06T21:06:00.940Z,16.75
2018-10-06T21:08:30.263Z,16.52
2018-10-06T21:10:59.649Z,16.57
2018-10-06T21:13:28.979Z,17.00
2018-10-06T21:15:58.411Z,19.17
2018-10-06T21:18:27.877Z,19.20
2018-10-06T21:20:57.235Z,16.57
2018-10-06T21:23:26.619Z,20.75
2018-10-06T21:25:55.995Z,18.12
2018-10-06T21:28:25.340Z,24.02
2018-10-06T21:30:54.739Z,15.50
2018-10-06T21:33:24.111Z,13.90
2018-10-06T21:35:53.480Z,18.12
2018-10-06T21:38:22.855Z,16.67
2018-10-06T21:40:52.237Z,16.23
2018-10-06T21:43:21.609Z,17.95
2018-10-06T21:45:50.978Z,17.95
2018-10-06T21:48:20.464Z,14.30
2018-10-06T21:50:49.911Z,13.95
2018-10-06T21:53:19.279Z,25.30
2018-10-06T21:55:48.677Z,16.02
2018-10-06T21:58:18.096Z,17.37
2018-10-06T22:00:51.559Z,15.85
2018-10-06T22:03:20.948Z,20.12
2018-10-06T22:05:50.292Z,17.77
2018-10-06T22:08:19.658Z,13.53
2018-10-06T22:10:49.025Z,19.02
2018-10-06T22:13:18.415Z,19.17
2018-10-06T22:15:47.791Z,22.85
2018-10-06T22:18:17.175Z,17.15
2018-10-06T22:20:46.692Z,16.02
2018-10-06T22:23:16.144Z,17.95
2018-10-06T22:25:45.927Z,24.95
2018-10-06T22:28:15.428Z,17.00
2018-10-06T22:30:44.891Z,18.15
2018-10-06T22:33:14.371Z,16.32
2018-10-06T22:35:43.774Z,18.23
2018-10-06T22:38:13.150Z,23.05
2018-10-06T22:40:42.483Z,17.45
2018-10-06T22:43:11.913Z,17.42
2018-10-06T22:45:41.345Z,15.13
2018-10-06T22:48:10.759Z,17.73
2018-10-06T22:50:40.195Z,19.37
2018-10-06T22:53:09.614Z,15.68
2018-10-06T22:55:39.076Z,17.65
2018-10-06T22:58:08.412Z,15.48
2018-10-06T23:00:37.817Z,19.15
2018-10-06T23:03:07.599Z,13.62
2018-10-06T23:05:36.975Z,20.35
2018-10-06T23:08:06.390Z,17.27
2018-10-06T23:10:35.751Z,16.12
2018-10-06T23:13:05.145Z,13.85
2018-10-06T23:15:34.557Z,15.98
2018-10-06T23:18:03.916Z,15.90
2018-10-06T23:20:33.354Z,17.30
2018-10-06T23:23:02.707Z,15.32
2018-10-06T23:25:32.092Z,16.07
2018-10-06T23:28:01.613Z,16.80
2018-10-06T23:30:30.960Z,13.70
2018-10-06T23:33:00.340Z,19.45
2018-10-06T23:35:29.743Z,14.03
2018-10-06T23:37:59.248Z,14.33
2018-10-06T23:40:28.803Z,16.07
2018-10-06T23:42:58.221Z,14.25
2018-10-06T23:45:27.663Z,20.08
2018-10-06T23:47:57.129Z,18.37
2018-10-06T23:50:26.603Z,14.93
2018-10-06T23:52:55.890Z,15.60
2018-10-06T23:55:25.261Z,15.08
2018-10-06T23:57:54.716Z,15.60
